Airfield :
LOGIN :

Register | Disclaimer

   EN    FR    IT 

 










Legend :    VFR   Marginal VFR   IFR   Intensive IFR   Very Intensive IFR
Visi :
Ceiling :
>= 8 km
>= 3000ft
5 to 8 km
1000 to 3000 ft
1500m to 5 km
500 to 1000 ft
800 to 1500m
200 to 500 ft
< 800m
< 200 ft
Symbols :   Thunderstorms  Fog  Heavy snow  Heavy precipitations  Wind > 20 kt
SIGMETs :     Misc.  Thunderstorms  Icing  Turbulence  Mountain Waves  Volcanic Ashes






- Airport Elevation : 1768 ft


LEHC - Huesca Pirineos

CURRENT METAR :
  • 241400Z 11007KT 070V160 9999 FEW060 SCT070 25/11 Q1018

EXPIRED METARs :
  • 241330Z 11006KT 060V160 9999 SCT060 24/11 Q1018
  • 241300Z 12008KT 070V160 9999 FEW070 24/11 Q1019
  • 241230Z 11008KT 070V160 9999 SCT070 24/10 Q1019
  • 241200Z 10009KT 070V150 9999 FEW070 24/09 Q1019
  • 241130Z 12007KT 060V180 9999 SCT060 23/10 Q1019

TAF TAF LEHC
Valid from the 24 at 09:00 until the 25 at 09:00 UTC


240800Z 2409/2509 06005KT 9999 FEW040 TX25/2414Z TN15/2506Z
TEMPO 2414/2418 13010KT



MET'MAP, your aeronautical weather chart ! - Copyright ORBIFLY December 2007 - Disclaimer

ORBIFLY MET'MAP TEAM :

Programming & Development : Alexandra Zaïnal
Concept & original design : Baudouin d'Aumeries
Assistance for programming : Marc-Olivier Méhu
Technical & hardware support : Manuel Goepfert

Contact : metmap@orbifly.com




SOURCES & CREDITS :

   NOAA